sensor_id;sensor_type;location;lat;lon;timestamp;temperature;humidity
6654;DHT22;3363;50.942;7.034;2022-09-14T00:01:24;21.70;99.90
6654;DHT22;3363;50.942;7.034;2022-09-14T00:03:54;21.50;99.90
6654;DHT22;3363;50.942;7.034;2022-09-14T00:06:21;21.60;99.90
6654;DHT22;3363;50.942;7.034;2022-09-14T00:08:50;21.60;99.90
6654;DHT22;3363;50.942;7.034;2022-09-14T00:11:18;21.60;99.90
6654;DHT22;3363;50.942;7.034;2022-09-14T00:13:46;21.60;99.90
6654;DHT22;3363;50.942;7.034;2022-09-14T00:16:15;21.50;99.90
6654;DHT22;3363;50.942;7.034;2022-09-14T00:18:43;21.50;99.90
6654;DHT22;3363;50.942;7.034;2022-09-14T00:21:12;21.60;99.90
6654;DHT22;3363;50.942;7.034;2022-09-14T00:23:40;21.60;99.90
6654;DHT22;3363;50.942;7.034;2022-09-14T00:26:09;21.60;99.90
6654;DHT22;3363;50.942;7.034;2022-09-14T00:28:38;21.60;99.90
6654;DHT22;3363;50.942;7.034;2022-09-14T00:31:06;21.60;99.90
6654;DHT22;3363;50.942;7.034;2022-09-14T00:33:33;21.60;99.90
6654;DHT22;3363;50.942;7.034;2022-09-14T00:36:08;21.60;99.90
6654;DHT22;3363;50.942;7.034;2022-09-14T00:38:37;21.60;99.90
6654;DHT22;3363;50.942;7.034;2022-09-14T00:41:07;21.60;99.90
6654;DHT22;3363;50.942;7.034;2022-09-14T00:43:53;21.60;99.90
6654;DHT22;3363;50.942;7.034;2022-09-14T00:46:20;21.60;99.90
6654;DHT22;3363;50.942;7.034;2022-09-14T00:48:47;21.60;99.90
6654;DHT22;3363;50.942;7.034;2022-09-14T00:51:16;21.60;99.90
6654;DHT22;3363;50.942;7.034;2022-09-14T00:53:45;21.60;99.90
6654;DHT22;3363;50.942;7.034;2022-09-14T00:56:12;21.50;99.90
6654;DHT22;3363;50.942;7.034;2022-09-14T00:58:40;21.60;99.90
6654;DHT22;3363;50.942;7.034;2022-09-14T01:01:08;21.50;99.90
6654;DHT22;3363;50.942;7.034;2022-09-14T01:03:35;21.50;99.90
6654;DHT22;3363;50.942;7.034;2022-09-14T01:06:07;21.50;99.90
6654;DHT22;3363;50.942;7.034;2022-09-14T01:09:16;21.50;99.90
6654;DHT22;3363;50.942;7.034;2022-09-14T01:12:00;21.50;99.90
6654;DHT22;3363;50.942;7.034;2022-09-14T01:14:38;21.50;99.90
6654;DHT22;3363;50.942;7.034;2022-09-14T01:17:12;21.50;99.90
6654;DHT22;3363;50.942;7.034;2022-09-14T01:19:59;21.40;99.90
6654;DHT22;3363;50.942;7.034;2022-09-14T01:22:35;21.40;99.90
6654;DHT22;3363;50.942;7.034;2022-09-14T01:25:31;21.40;99.90
6654;DHT22;3363;50.942;7.034;2022-09-14T01:28:04;21.40;99.90
6654;DHT22;3363;50.942;7.034;2022-09-14T01:30:38;21.40;99.90
6654;DHT22;3363;50.942;7.034;2022-09-14T01:33:12;21.40;99.90
6654;DHT22;3363;50.942;7.034;2022-09-14T01:35:45;21.40;99.90
6654;DHT22;3363;50.942;7.034;2022-09-14T01:38:16;21.40;99.90
6654;DHT22;3363;50.942;7.034;2022-09-14T01:40:46;21.40;99.90
6654;DHT22;3363;50.942;7.034;2022-09-14T01:43:18;21.40;99.90
6654;DHT22;3363;50.942;7.034;2022-09-14T01:45:48;21.40;99.90
6654;DHT22;3363;50.942;7.034;2022-09-14T01:48:20;21.40;99.90
6654;DHT22;3363;50.942;7.034;2022-09-14T01:50:50;21.40;99.90
6654;DHT22;3363;50.942;7.034;2022-09-14T01:53:29;21.40;99.90
6654;DHT22;3363;50.942;7.034;2022-09-14T01:56:00;21.40;99.90
6654;DHT22;3363;50.942;7.034;2022-09-14T01:58:34;21.40;99.90
6654;DHT22;3363;50.942;7.034;2022-09-14T02:01:04;21.40;99.90
6654;DHT22;3363;50.942;7.034;2022-09-14T02:03:37;21.30;99.90
6654;DHT22;3363;50.942;7.034;2022-09-14T02:06:10;21.30;99.90
6654;DHT22;3363;50.942;7.034;2022-09-14T02:08:39;21.30;99.90
6654;DHT22;3363;50.942;7.034;2022-09-14T02:11:06;21.30;99.90
6654;DHT22;3363;50.942;7.034;2022-09-14T02:13:34;21.30;99.90
6654;DHT22;3363;50.942;7.034;2022-09-14T02:16:01;21.30;99.90
6654;DHT22;3363;50.942;7.034;2022-09-14T02:18:28;21.30;99.90
6654;DHT22;3363;50.942;7.034;2022-09-14T02:20:59;21.30;99.90
6654;DHT22;3363;50.942;7.034;2022-09-14T02:23:27;21.20;99.90
6654;DHT22;3363;50.942;7.034;2022-09-14T02:25:54;21.20;99.90
6654;DHT22;3363;50.942;7.034;2022-09-14T02:28:21;21.20;99.90
6654;DHT22;3363;50.942;7.034;2022-09-14T02:30:57;21.20;99.90
6654;DHT22;3363;50.942;7.034;2022-09-14T02:33:34;21.20;99.90
6654;DHT22;3363;50.942;7.034;2022-09-14T02:36:06;21.20;99.90
6654;DHT22;3363;50.942;7.034;2022-09-14T02:38:39;21.20;99.90
6654;DHT22;3363;50.942;7.034;2022-09-14T02:41:16;21.10;99.90
6654;DHT22;3363;50.942;7.034;2022-09-14T02:43:48;21.20;99.90
6654;DHT22;3363;50.942;7.034;2022-09-14T02:46:23;21.20;99.90
6654;DHT22;3363;50.942;7.034;2022-09-14T02:48:58;21.20;99.90
6654;DHT22;3363;50.942;7.034;2022-09-14T02:51:30;21.20;99.90
6654;DHT22;3363;50.942;7.034;2022-09-14T02:54:03;21.10;99.90
6654;DHT22;3363;50.942;7.034;2022-09-14T02:56:30;21.20;99.90
6654;DHT22;3363;50.942;7.034;2022-09-14T02:58:58;21.20;99.90
6654;DHT22;3363;50.942;7.034;2022-09-14T03:01:27;21.20;99.90
6654;DHT22;3363;50.942;7.034;2022-09-14T03:03:54;21.10;99.90
6654;DHT22;3363;50.942;7.034;2022-09-14T03:06:20;21.10;99.90
6654;DHT22;3363;50.942;7.034;2022-09-14T03:08:48;21.10;99.90
6654;DHT22;3363;50.942;7.034;2022-09-14T03:11:15;21.10;99.90
6654;DHT22;3363;50.942;7.034;2022-09-14T03:13:42;21.10;99.90
6654;DHT22;3363;50.942;7.034;2022-09-14T03:16:12;21.10;99.90
6654;DHT22;3363;50.942;7.034;2022-09-14T03:18:41;21.10;99.90
6654;DHT22;3363;50.942;7.034;2022-09-14T03:21:09;21.10;99.90
6654;DHT22;3363;50.942;7.034;2022-09-14T03:23:37;21.10;99.90
6654;DHT22;3363;50.942;7.034;2022-09-14T03:26:07;21.00;99.90
6654;DHT22;3363;50.942;7.034;2022-09-14T03:28:35;21.10;99.90
6654;DHT22;3363;50.942;7.034;2022-09-14T03:31:03;21.00;99.90
6654;DHT22;3363;50.942;7.034;2022-09-14T03:33:31;21.00;99.90
6654;DHT22;3363;50.942;7.034;2022-09-14T03:35:59;21.00;99.90
6654;DHT22;3363;50.942;7.034;2022-09-14T03:38:26;21.00;99.90
6654;DHT22;3363;50.942;7.034;2022-09-14T03:40:54;21.00;99.90
6654;DHT22;3363;50.942;7.034;2022-09-14T03:43:21;21.00;99.90
6654;DHT22;3363;50.942;7.034;2022-09-14T03:45:48;21.00;99.90
6654;DHT22;3363;50.942;7.034;2022-09-14T03:48:15;21.00;99.90
6654;DHT22;3363;50.942;7.034;2022-09-14T03:50:42;21.00;99.90
6654;DHT22;3363;50.942;7.034;2022-09-14T03:53:10;21.00;99.90
6654;DHT22;3363;50.942;7.034;2022-09-14T03:55:39;21.00;99.90
6654;DHT22;3363;50.942;7.034;2022-09-14T03:58:05;20.90;99.90
6654;DHT22;3363;50.942;7.034;2022-09-14T04:00:32;21.00;99.90
6654;DHT22;3363;50.942;7.034;2022-09-14T04:02:59;20.90;99.90
6654;DHT22;3363;50.942;7.034;2022-09-14T04:05:26;20.90;99.90
6654;DHT22;3363;50.942;7.034;2022-09-14T04:07:53;20.90;99.90
6654;DHT22;3363;50.942;7.034;2022-09-14T04:10:21;20.90;99.90
6654;DHT22;3363;50.942;7.034;2022-09-14T04:12:48;20.90;99.90
6654;DHT22;3363;50.942;7.034;2022-09-14T04:15:15;20.90;99.90
6654;DHT22;3363;50.942;7.034;2022-09-14T04:17:41;20.90;99.90
6654;DHT22;3363;50.942;7.034;2022-09-14T04:20:09;20.90;99.90
6654;DHT22;3363;50.942;7.034;2022-09-14T04:22:35;20.90;99.90
6654;DHT22;3363;50.942;7.034;2022-09-14T04:25:03;20.90;99.90
6654;DHT22;3363;50.942;7.034;2022-09-14T04:27:31;20.90;99.90
6654;DHT22;3363;50.942;7.034;2022-09-14T04:29:58;20.90;99.90
6654;DHT22;3363;50.942;7.034;2022-09-14T04:32:25;20.90;99.90
6654;DHT22;3363;50.942;7.034;2022-09-14T04:34:52;20.90;99.90
6654;DHT22;3363;50.942;7.034;2022-09-14T04:37:18;20.90;99.90
6654;DHT22;3363;50.942;7.034;2022-09-14T04:39:45;20.90;99.90
6654;DHT22;3363;50.942;7.034;2022-09-14T04:42:12;20.80;99.90
6654;DHT22;3363;50.942;7.034;2022-09-14T04:44:41;20.90;99.90
6654;DHT22;3363;50.942;7.034;2022-09-14T04:47:07;20.80;99.90
6654;DHT22;3363;50.942;7.034;2022-09-14T04:49:34;20.80;99.90
6654;DHT22;3363;50.942;7.034;2022-09-14T04:52:01;20.80;99.90
6654;DHT22;3363;50.942;7.034;2022-09-14T04:54:28;20.80;99.90
6654;DHT22;3363;50.942;7.034;2022-09-14T04:56:55;20.80;99.90
6654;DHT22;3363;50.942;7.034;2022-09-14T04:59:22;20.80;99.90
6654;DHT22;3363;50.942;7.034;2022-09-14T05:01:50;20.80;99.90
6654;DHT22;3363;50.942;7.034;2022-09-14T05:04:17;20.80;99.90
6654;DHT22;3363;50.942;7.034;2022-09-14T05:06:44;20.80;99.90
6654;DHT22;3363;50.942;7.034;2022-09-14T05:09:12;20.80;99.90
6654;DHT22;3363;50.942;7.034;2022-09-14T05:11:40;20.70;99.90
6654;DHT22;3363;50.942;7.034;2022-09-14T05:14:09;20.80;99.90
6654;DHT22;3363;50.942;7.034;2022-09-14T05:16:37;20.70;99.90
6654;DHT22;3363;50.942;7.034;2022-09-14T05:19:07;20.70;99.90
6654;DHT22;3363;50.942;7.034;2022-09-14T05:21:35;20.70;99.90
6654;DHT22;3363;50.942;7.034;2022-09-14T05:24:04;20.70;99.90
6654;DHT22;3363;50.942;7.034;2022-09-14T05:26:32;20.70;99.90
6654;DHT22;3363;50.942;7.034;2022-09-14T05:29:01;20.70;99.90
6654;DHT22;3363;50.942;7.034;2022-09-14T05:31:29;20.70;99.90
6654;DHT22;3363;50.942;7.034;2022-09-14T05:33:56;20.70;99.90
6654;DHT22;3363;50.942;7.034;2022-09-14T05:36:25;20.70;99.90
6654;DHT22;3363;50.942;7.034;2022-09-14T05:38:52;20.70;99.90
6654;DHT22;3363;50.942;7.034;2022-09-14T05:41:19;20.70;99.90
6654;DHT22;3363;50.942;7.034;2022-09-14T05:43:46;20.70;99.90
6654;DHT22;3363;50.942;7.034;2022-09-14T05:46:14;20.70;99.90
6654;DHT22;3363;50.942;7.034;2022-09-14T05:48:41;20.70;99.90
6654;DHT22;3363;50.942;7.034;2022-09-14T05:51:10;20.70;99.90
6654;DHT22;3363;50.942;7.034;2022-09-14T05:53:40;20.70;99.90
6654;DHT22;3363;50.942;7.034;2022-09-14T05:56:08;20.60;99.90
6654;DHT22;3363;50.942;7.034;2022-09-14T05:58:36;20.60;99.90
6654;DHT22;3363;50.942;7.034;2022-09-14T06:01:07;20.60;99.90
6654;DHT22;3363;50.942;7.034;2022-09-14T06:03:34;20.60;99.90
6654;DHT22;3363;50.942;7.034;2022-09-14T06:06:01;20.60;99.90
6654;DHT22;3363;50.942;7.034;2022-09-14T06:08:28;20.60;99.90
6654;DHT22;3363;50.942;7.034;2022-09-14T06:10:56;20.60;99.90
6654;DHT22;3363;50.942;7.034;2022-09-14T06:13:28;20.60;99.90
6654;DHT22;3363;50.942;7.034;2022-09-14T06:15:54;20.60;99.90
6654;DHT22;3363;50.942;7.034;2022-09-14T06:18:22;20.60;99.90
6654;DHT22;3363;50.942;7.034;2022-09-14T06:20:49;20.60;99.90
6654;DHT22;3363;50.942;7.034;2022-09-14T06:23:16;20.60;99.90
6654;DHT22;3363;50.942;7.034;2022-09-14T06:25:43;20.60;99.90
6654;DHT22;3363;50.942;7.034;2022-09-14T06:28:11;20.50;99.90
6654;DHT22;3363;50.942;7.034;2022-09-14T06:30:41;20.50;99.90
6654;DHT22;3363;50.942;7.034;2022-09-14T06:33:08;20.50;99.90
6654;DHT22;3363;50.942;7.034;2022-09-14T06:35:35;20.60;99.90
6654;DHT22;3363;50.942;7.034;2022-09-14T06:38:02;20.50;99.90
6654;DHT22;3363;50.942;7.034;2022-09-14T06:40:29;20.50;99.90
6654;DHT22;3363;50.942;7.034;2022-09-14T06:42:55;20.50;99.90
6654;DHT22;3363;50.942;7.034;2022-09-14T06:45:28;20.50;99.90
6654;DHT22;3363;50.942;7.034;2022-09-14T06:47:55;20.50;99.90
6654;DHT22;3363;50.942;7.034;2022-09-14T06:50:22;20.40;99.90
6654;DHT22;3363;50.942;7.034;2022-09-14T06:52:49;20.30;99.90
6654;DHT22;3363;50.942;7.034;2022-09-14T06:55:16;20.20;99.90
6654;DHT22;3363;50.942;7.034;2022-09-14T06:57:43;20.20;99.90
6654;DHT22;3363;50.942;7.034;2022-09-14T07:00:13;20.20;99.90
6654;DHT22;3363;50.942;7.034;2022-09-14T07:05:08;20.30;99.90
6654;DHT22;3363;50.942;7.034;2022-09-14T07:07:35;20.40;99.90
6654;DHT22;3363;50.942;7.034;2022-09-14T07:10:02;20.40;99.90
6654;DHT22;3363;50.942;7.034;2022-09-14T07:12:29;20.30;99.90
6654;DHT22;3363;50.942;7.034;2022-09-14T07:14:56;20.20;99.90
6654;DHT22;3363;50.942;7.034;2022-09-14T07:17:24;20.20;99.90
6654;DHT22;3363;50.942;7.034;2022-09-14T07:19:52;20.20;99.90
6654;DHT22;3363;50.942;7.034;2022-09-14T07:22:19;20.20;99.90
6654;DHT22;3363;50.942;7.034;2022-09-14T07:24:46;20.20;99.90
6654;DHT22;3363;50.942;7.034;2022-09-14T07:27:13;20.20;99.90
6654;DHT22;3363;50.942;7.034;2022-09-14T07:29:40;20.30;99.90
6654;DHT22;3363;50.942;7.034;2022-09-14T07:32:06;20.30;99.90
6654;DHT22;3363;50.942;7.034;2022-09-14T07:34:33;20.20;99.90
6654;DHT22;3363;50.942;7.034;2022-09-14T07:37:01;20.20;99.90
6654;DHT22;3363;50.942;7.034;2022-09-14T07:39:28;20.00;99.90
6654;DHT22;3363;50.942;7.034;2022-09-14T07:41:55;20.00;99.90
6654;DHT22;3363;50.942;7.034;2022-09-14T07:44:22;20.10;99.90
6654;DHT22;3363;50.942;7.034;2022-09-14T07:46:50;20.20;99.90
6654;DHT22;3363;50.942;7.034;2022-09-14T07:49:17;20.20;99.90
6654;DHT22;3363;50.942;7.034;2022-09-14T07:51:46;20.20;99.90
6654;DHT22;3363;50.942;7.034;2022-09-14T07:54:16;20.20;99.90
6654;DHT22;3363;50.942;7.034;2022-09-14T07:56:43;20.20;99.90
6654;DHT22;3363;50.942;7.034;2022-09-14T07:59:12;20.10;99.90
6654;DHT22;3363;50.942;7.034;2022-09-14T08:01:39;20.20;99.90
6654;DHT22;3363;50.942;7.034;2022-09-14T08:04:06;20.00;99.90
6654;DHT22;3363;50.942;7.034;2022-09-14T08:06:34;20.00;99.90
6654;DHT22;3363;50.942;7.034;2022-09-14T08:09:04;20.00;99.90
6654;DHT22;3363;50.942;7.034;2022-09-14T08:11:34;20.10;99.90
6654;DHT22;3363;50.942;7.034;2022-09-14T08:14:05;20.20;99.90
6654;DHT22;3363;50.942;7.034;2022-09-14T08:16:34;20.20;99.90
6654;DHT22;3363;50.942;7.034;2022-09-14T08:19:05;20.30;99.90
6654;DHT22;3363;50.942;7.034;2022-09-14T08:21:35;20.20;99.90
6654;DHT22;3363;50.942;7.034;2022-09-14T08:24:02;20.20;99.90
6654;DHT22;3363;50.942;7.034;2022-09-14T08:26:29;20.20;99.90
6654;DHT22;3363;50.942;7.034;2022-09-14T08:28:58;20.20;99.90
6654;DHT22;3363;50.942;7.034;2022-09-14T08:31:26;20.20;99.90
6654;DHT22;3363;50.942;7.034;2022-09-14T08:33:55;20.10;99.90
6654;DHT22;3363;50.942;7.034;2022-09-14T08:36:23;20.10;99.90
6654;DHT22;3363;50.942;7.034;2022-09-14T08:38:51;20.10;99.90
6654;DHT22;3363;50.942;7.034;2022-09-14T08:41:25;20.20;99.90
6654;DHT22;3363;50.942;7.034;2022-09-14T08:43:53;20.20;99.90
6654;DHT22;3363;50.942;7.034;2022-09-14T08:46:27;20.20;99.90
6654;DHT22;3363;50.942;7.034;2022-09-14T08:48:55;20.20;99.90
6654;DHT22;3363;50.942;7.034;2022-09-14T08:51:22;20.20;99.90
6654;DHT22;3363;50.942;7.034;2022-09-14T08:53:50;20.20;99.90
6654;DHT22;3363;50.942;7.034;2022-09-14T08:56:21;20.20;99.90
6654;DHT22;3363;50.942;7.034;2022-09-14T08:58:59;20.20;99.90
6654;DHT22;3363;50.942;7.034;2022-09-14T09:01:37;20.20;99.90
6654;DHT22;3363;50.942;7.034;2022-09-14T09:07:13;20.20;99.90
6654;DHT22;3363;50.942;7.034;2022-09-14T09:09:43;20.10;99.90
6654;DHT22;3363;50.942;7.034;2022-09-14T09:12:17;20.20;99.90
6654;DHT22;3363;50.942;7.034;2022-09-14T09:14:48;20.10;99.90
6654;DHT22;3363;50.942;7.034;2022-09-14T09:17:21;20.10;99.90
6654;DHT22;3363;50.942;7.034;2022-09-14T09:20:00;20.10;99.90
6654;DHT22;3363;50.942;7.034;2022-09-14T09:22:42;20.10;99.90
6654;DHT22;3363;50.942;7.034;2022-09-14T09:25:15;20.10;99.90
6654;DHT22;3363;50.942;7.034;2022-09-14T09:27:44;20.10;99.90
6654;DHT22;3363;50.942;7.034;2022-09-14T09:30:13;20.10;99.90
6654;DHT22;3363;50.942;7.034;2022-09-14T09:32:41;20.10;99.90
6654;DHT22;3363;50.942;7.034;2022-09-14T09:35:13;20.10;99.90
6654;DHT22;3363;50.942;7.034;2022-09-14T09:37:41;20.10;99.90
6654;DHT22;3363;50.942;7.034;2022-09-14T09:40:16;20.20;99.90
6654;DHT22;3363;50.942;7.034;2022-09-14T09:43:04;20.10;99.90
6654;DHT22;3363;50.942;7.034;2022-09-14T09:45:46;20.00;99.90
6654;DHT22;3363;50.942;7.034;2022-09-14T09:48:17;20.00;99.90
6654;DHT22;3363;50.942;7.034;2022-09-14T09:50:50;19.90;99.90
6654;DHT22;3363;50.942;7.034;2022-09-14T09:53:21;19.90;99.90
6654;DHT22;3363;50.942;7.034;2022-09-14T09:55:51;20.00;99.90
6654;DHT22;3363;50.942;7.034;2022-09-14T09:58:26;20.00;99.90
6654;DHT22;3363;50.942;7.034;2022-09-14T10:00:55;20.00;99.90
6654;DHT22;3363;50.942;7.034;2022-09-14T10:03:30;20.10;99.90
6654;DHT22;3363;50.942;7.034;2022-09-14T10:06:07;20.10;99.90
6654;DHT22;3363;50.942;7.034;2022-09-14T10:08:40;20.10;99.90
6654;DHT22;3363;50.942;7.034;2022-09-14T10:11:26;20.10;99.90
6654;DHT22;3363;50.942;7.034;2022-09-14T10:13:54;20.10;99.90
6654;DHT22;3363;50.942;7.034;2022-09-14T10:16:23;20.10;99.90
6654;DHT22;3363;50.942;7.034;2022-09-14T10:18:53;20.10;99.90
6654;DHT22;3363;50.942;7.034;2022-09-14T10:21:23;20.10;99.90
6654;DHT22;3363;50.942;7.034;2022-09-14T10:24:03;20.10;99.90
6654;DHT22;3363;50.942;7.034;2022-09-14T10:26:33;20.00;99.90
6654;DHT22;3363;50.942;7.034;2022-09-14T10:29:29;19.90;99.90
6654;DHT22;3363;50.942;7.034;2022-09-14T10:32:06;20.00;99.90
6654;DHT22;3363;50.942;7.034;2022-09-14T10:34:38;20.00;99.90
6654;DHT22;3363;50.942;7.034;2022-09-14T10:37:16;20.00;99.90
6654;DHT22;3363;50.942;7.034;2022-09-14T10:39:48;20.00;99.90
6654;DHT22;3363;50.942;7.034;2022-09-14T10:42:23;20.10;99.90
6654;DHT22;3363;50.942;7.034;2022-09-14T10:45:02;20.10;99.90
6654;DHT22;3363;50.942;7.034;2022-09-14T10:48:02;20.00;99.90
6654;DHT22;3363;50.942;7.034;2022-09-14T10:50:45;19.90;99.90
6654;DHT22;3363;50.942;7.034;2022-09-14T10:53:22;19.90;99.90
6654;DHT22;3363;50.942;7.034;2022-09-14T10:55:58;19.90;99.90
6654;DHT22;3363;50.942;7.034;2022-09-14T10:58:36;19.90;99.90
6654;DHT22;3363;50.942;7.034;2022-09-14T11:01:21;19.90;99.90
6654;DHT22;3363;50.942;7.034;2022-09-14T11:04:01;19.90;99.90
6654;DHT22;3363;50.942;7.034;2022-09-14T11:06:38;19.90;99.90
6654;DHT22;3363;50.942;7.034;2022-09-14T11:09:20;19.90;99.90
6654;DHT22;3363;50.942;7.034;2022-09-14T11:11:55;19.80;99.90
6654;DHT22;3363;50.942;7.034;2022-09-14T11:14:36;19.80;99.90
6654;DHT22;3363;50.942;7.034;2022-09-14T11:17:18;19.90;99.90
6654;DHT22;3363;50.942;7.034;2022-09-14T11:19:54;19.90;99.90
6654;DHT22;3363;50.942;7.034;2022-09-14T11:22:34;19.90;99.90
6654;DHT22;3363;50.942;7.034;2022-09-14T11:25:04;19.90;99.90
6654;DHT22;3363;50.942;7.034;2022-09-14T11:27:39;19.90;99.90
6654;DHT22;3363;50.942;7.034;2022-09-14T11:30:12;20.00;99.90
6654;DHT22;3363;50.942;7.034;2022-09-14T11:32:43;20.00;99.90
6654;DHT22;3363;50.942;7.034;2022-09-14T11:35:15;20.00;99.90
6654;DHT22;3363;50.942;7.034;2022-09-14T11:37:47;20.00;99.90
6654;DHT22;3363;50.942;7.034;2022-09-14T11:40:18;20.00;99.90
6654;DHT22;3363;50.942;7.034;2022-09-14T11:42:51;20.00;99.90
6654;DHT22;3363;50.942;7.034;2022-09-14T11:45:26;20.00;99.90
6654;DHT22;3363;50.942;7.034;2022-09-14T11:48:05;20.00;99.90
6654;DHT22;3363;50.942;7.034;2022-09-14T11:50:35;20.00;99.90
6654;DHT22;3363;50.942;7.034;2022-09-14T11:53:09;20.00;99.90
6654;DHT22;3363;50.942;7.034;2022-09-14T11:55:37;19.90;99.90
6654;DHT22;3363;50.942;7.034;2022-09-14T11:58:17;20.00;99.90
6654;DHT22;3363;50.942;7.034;2022-09-14T12:00:58;20.00;99.90
6654;DHT22;3363;50.942;7.034;2022-09-14T12:03:52;20.00;99.90
6654;DHT22;3363;50.942;7.034;2022-09-14T12:06:45;20.10;99.90
6654;DHT22;3363;50.942;7.034;2022-09-14T12:12:43;20.00;99.90
6654;DHT22;3363;50.942;7.034;2022-09-14T12:15:32;20.00;99.90
6654;DHT22;3363;50.942;7.034;2022-09-14T12:18:18;20.00;99.90
6654;DHT22;3363;50.942;7.034;2022-09-14T12:20:46;20.00;99.90
6654;DHT22;3363;50.942;7.034;2022-09-14T12:23:24;19.90;99.90
6654;DHT22;3363;50.942;7.034;2022-09-14T12:25:54;19.90;99.90
6654;DHT22;3363;50.942;7.034;2022-09-14T12:28:36;19.90;99.90
6654;DHT22;3363;50.942;7.034;2022-09-14T12:31:11;20.00;99.90
6654;DHT22;3363;50.942;7.034;2022-09-14T12:36:56;20.00;99.90
6654;DHT22;3363;50.942;7.034;2022-09-14T12:39:26;20.00;99.90
6654;DHT22;3363;50.942;7.034;2022-09-14T12:42:24;20.00;99.90
6654;DHT22;3363;50.942;7.034;2022-09-14T12:44:52;20.00;99.90
6654;DHT22;3363;50.942;7.034;2022-09-14T12:47:48;20.00;99.90
6654;DHT22;3363;50.942;7.034;2022-09-14T12:50:17;20.00;99.90
6654;DHT22;3363;50.942;7.034;2022-09-14T12:52:54;19.90;99.90
6654;DHT22;3363;50.942;7.034;2022-09-14T12:55:43;19.80;99.90
6654;DHT22;3363;50.942;7.034;2022-09-14T12:58:24;19.80;99.90
6654;DHT22;3363;50.942;7.034;2022-09-14T13:01:09;19.80;99.90
6654;DHT22;3363;50.942;7.034;2022-09-14T13:03:50;19.80;99.90
6654;DHT22;3363;50.942;7.034;2022-09-14T13:06:20;19.80;99.90
6654;DHT22;3363;50.942;7.034;2022-09-14T13:08:50;19.90;99.90
6654;DHT22;3363;50.942;7.034;2022-09-14T13:11:24;20.00;99.90
6654;DHT22;3363;50.942;7.034;2022-09-14T13:13:54;19.90;99.90
6654;DHT22;3363;50.942;7.034;2022-09-14T13:16:37;19.90;99.90
6654;DHT22;3363;50.942;7.034;2022-09-14T13:19:17;19.90;99.90
6654;DHT22;3363;50.942;7.034;2022-09-14T13:21:46;20.00;99.90
6654;DHT22;3363;50.942;7.034;2022-09-14T13:24:23;19.90;99.90
6654;DHT22;3363;50.942;7.034;2022-09-14T13:26:51;19.90;99.90
6654;DHT22;3363;50.942;7.034;2022-09-14T13:29:18;20.00;99.90
6654;DHT22;3363;50.942;7.034;2022-09-14T13:31:46;20.00;99.90
6654;DHT22;3363;50.942;7.034;2022-09-14T13:34:17;20.00;99.90
6654;DHT22;3363;50.942;7.034;2022-09-14T13:36:45;20.00;99.90
6654;DHT22;3363;50.942;7.034;2022-09-14T13:39:23;19.90;99.90
6654;DHT22;3363;50.942;7.034;2022-09-14T13:41:51;19.90;99.90
6654;DHT22;3363;50.942;7.034;2022-09-14T13:44:23;19.90;99.90
6654;DHT22;3363;50.942;7.034;2022-09-14T13:46:52;19.90;99.90
6654;DHT22;3363;50.942;7.034;2022-09-14T13:49:20;19.90;99.90
6654;DHT22;3363;50.942;7.034;2022-09-14T13:51:47;19.80;99.90
6654;DHT22;3363;50.942;7.034;2022-09-14T13:54:26;19.90;99.90
6654;DHT22;3363;50.942;7.034;2022-09-14T13:57:10;19.90;99.90
6654;DHT22;3363;50.942;7.034;2022-09-14T14:00:03;19.90;99.90
6654;DHT22;3363;50.942;7.034;2022-09-14T14:02:33;19.80;99.90
6654;DHT22;3363;50.942;7.034;2022-09-14T14:05:01;19.80;99.90
6654;DHT22;3363;50.942;7.034;2022-09-14T14:07:30;19.80;99.90
6654;DHT22;3363;50.942;7.034;2022-09-14T14:09:59;19.80;99.90
6654;DHT22;3363;50.942;7.034;2022-09-14T14:12:30;19.70;99.90
6654;DHT22;3363;50.942;7.034;2022-09-14T14:14:59;19.70;99.90
6654;DHT22;3363;50.942;7.034;2022-09-14T14:17:35;19.70;99.90
6654;DHT22;3363;50.942;7.034;2022-09-14T14:20:31;19.70;99.90
6654;DHT22;3363;50.942;7.034;2022-09-14T14:23:11;19.70;99.90
6654;DHT22;3363;50.942;7.034;2022-09-14T14:25:43;19.70;99.90
6654;DHT22;3363;50.942;7.034;2022-09-14T14:28:14;19.80;99.90
6654;DHT22;3363;50.942;7.034;2022-09-14T14:30:42;19.70;99.90
6654;DHT22;3363;50.942;7.034;2022-09-14T14:33:11;19.70;99.90
6654;DHT22;3363;50.942;7.034;2022-09-14T14:35:39;19.60;99.90
6654;DHT22;3363;50.942;7.034;2022-09-14T14:38:06;19.70;99.90
6654;DHT22;3363;50.942;7.034;2022-09-14T14:40:34;19.70;99.90
6654;DHT22;3363;50.942;7.034;2022-09-14T14:43:01;19.60;99.90
6654;DHT22;3363;50.942;7.034;2022-09-14T14:45:29;19.70;99.90
6654;DHT22;3363;50.942;7.034;2022-09-14T14:47:58;19.60;99.90
6654;DHT22;3363;50.942;7.034;2022-09-14T14:50:28;19.50;99.90
6654;DHT22;3363;50.942;7.034;2022-09-14T14:52:55;19.40;99.90
6654;DHT22;3363;50.942;7.034;2022-09-14T14:55:23;19.40;99.90
6654;DHT22;3363;50.942;7.034;2022-09-14T14:57:52;19.50;99.90
6654;DHT22;3363;50.942;7.034;2022-09-14T15:00:21;19.50;99.90
6654;DHT22;3363;50.942;7.034;2022-09-14T15:02:49;19.40;99.90
6654;DHT22;3363;50.942;7.034;2022-09-14T15:05:16;19.50;99.90
6654;DHT22;3363;50.942;7.034;2022-09-14T15:07:45;19.60;99.90
6654;DHT22;3363;50.942;7.034;2022-09-14T15:10:15;19.60;99.90
6654;DHT22;3363;50.942;7.034;2022-09-14T15:12:42;19.60;99.90
6654;DHT22;3363;50.942;7.034;2022-09-14T15:15:12;19.60;99.90
6654;DHT22;3363;50.942;7.034;2022-09-14T15:17:39;19.60;99.90
6654;DHT22;3363;50.942;7.034;2022-09-14T15:20:07;19.60;99.90
6654;DHT22;3363;50.942;7.034;2022-09-14T15:22:34;19.60;99.90
6654;DHT22;3363;50.942;7.034;2022-09-14T15:25:03;19.50;99.90
6654;DHT22;3363;50.942;7.034;2022-09-14T15:27:31;19.60;99.90
6654;DHT22;3363;50.942;7.034;2022-09-14T15:29:58;19.60;99.90
6654;DHT22;3363;50.942;7.034;2022-09-14T15:32:25;19.60;99.90
6654;DHT22;3363;50.942;7.034;2022-09-14T15:34:52;19.60;99.90
6654;DHT22;3363;50.942;7.034;2022-09-14T15:37:19;19.50;99.90
6654;DHT22;3363;50.942;7.034;2022-09-14T15:39:46;19.40;99.90
6654;DHT22;3363;50.942;7.034;2022-09-14T15:42:16;19.50;99.90
6654;DHT22;3363;50.942;7.034;2022-09-14T15:44:44;19.60;99.90
6654;DHT22;3363;50.942;7.034;2022-09-14T15:47:11;19.50;99.90
6654;DHT22;3363;50.942;7.034;2022-09-14T15:49:39;19.50;99.90
6654;DHT22;3363;50.942;7.034;2022-09-14T15:52:07;19.40;99.90
6654;DHT22;3363;50.942;7.034;2022-09-14T15:54:35;19.40;99.90
6654;DHT22;3363;50.942;7.034;2022-09-14T15:57:04;19.50;99.90
6654;DHT22;3363;50.942;7.034;2022-09-14T15:59:33;19.60;99.90
6654;DHT22;3363;50.942;7.034;2022-09-14T16:02:00;19.60;99.90
6654;DHT22;3363;50.942;7.034;2022-09-14T16:04:27;19.60;99.90
6654;DHT22;3363;50.942;7.034;2022-09-14T16:06:54;19.50;99.90
6654;DHT22;3363;50.942;7.034;2022-09-14T16:09:21;19.50;99.90
6654;DHT22;3363;50.942;7.034;2022-09-14T16:11:48;19.50;99.90
6654;DHT22;3363;50.942;7.034;2022-09-14T16:14:15;19.40;99.90
6654;DHT22;3363;50.942;7.034;2022-09-14T16:16:43;19.30;99.90
6654;DHT22;3363;50.942;7.034;2022-09-14T16:19:12;19.30;99.90
6654;DHT22;3363;50.942;7.034;2022-09-14T16:21:40;19.30;99.90
6654;DHT22;3363;50.942;7.034;2022-09-14T16:24:10;19.30;99.90
6654;DHT22;3363;50.942;7.034;2022-09-14T16:26:38;19.30;99.90
6654;DHT22;3363;50.942;7.034;2022-09-14T16:29:06;19.30;99.90
6654;DHT22;3363;50.942;7.034;2022-09-14T16:31:37;19.20;99.90
6654;DHT22;3363;50.942;7.034;2022-09-14T16:34:07;19.10;99.90
6654;DHT22;3363;50.942;7.034;2022-09-14T16:36:37;19.20;99.90
6654;DHT22;3363;50.942;7.034;2022-09-14T16:39:06;19.30;99.90